createdAt,value
2023-02-12T00:05:12.771Z,0
2023-02-12T00:11:35.808Z,0
2023-02-12T00:17:55.818Z,0
2023-02-12T00:24:18.859Z,0
2023-02-12T00:30:38.812Z,0
2023-02-12T00:37:01.920Z,0
2023-02-12T00:43:21.783Z,0
2023-02-12T00:49:44.815Z,0
2023-02-12T00:56:04.777Z,0
2023-02-12T01:02:27.848Z,0
2023-02-12T01:08:47.778Z,0
2023-02-12T01:15:10.795Z,0
2023-02-12T01:21:30.954Z,0
2023-02-12T01:27:53.817Z,0
2023-02-12T01:34:13.842Z,0
2023-02-12T01:40:36.737Z,0
2023-02-12T01:46:56.817Z,0
2023-02-12T01:53:19.857Z,0
2023-02-12T01:59:39.778Z,0
2023-02-12T02:06:02.870Z,0
2023-02-12T02:12:22.827Z,0
2023-02-12T02:18:45.760Z,0
2023-02-12T02:25:05.807Z,0
2023-02-12T02:31:28.881Z,0
2023-02-12T02:37:48.760Z,0
2023-02-12T02:44:11.767Z,0
2023-02-12T02:50:31.804Z,0
2023-02-12T02:56:54.745Z,0
2023-02-12T03:03:14.862Z,0
2023-02-12T03:09:37.798Z,0
2023-02-12T03:15:58.129Z,0
2023-02-12T03:22:20.819Z,0
2023-02-12T03:28:40.962Z,0
2023-02-12T03:35:03.865Z,0
2023-02-12T03:41:23.901Z,0
2023-02-12T03:47:46.800Z,0
2023-02-12T03:54:06.782Z,0
2023-02-12T04:00:29.744Z,0
2023-02-12T04:06:49.839Z,0
2023-02-12T04:22:23.951Z,0
2023-02-12T04:28:43.754Z,0
2023-02-12T04:35:06.751Z,0
2023-02-12T04:41:26.816Z,0
2023-02-12T04:47:49.755Z,0
2023-02-12T04:54:09.794Z,0
2023-02-12T05:00:32.872Z,0
2023-02-12T05:06:52.751Z,0
2023-02-12T05:13:15.770Z,0
2023-02-12T05:19:35.885Z,0
2023-02-12T05:25:58.778Z,0
2023-02-12T05:32:18.873Z,0
2023-02-12T05:38:41.842Z,0
2023-02-12T05:45:01.751Z,0
2023-02-12T05:51:24.816Z,0
2023-02-12T05:57:44.800Z,0
2023-02-12T06:04:07.851Z,0
2023-02-12T06:10:27.827Z,0
2023-02-12T06:16:50.789Z,0
2023-02-12T06:23:10.793Z,0
2023-02-12T06:29:33.949Z,0
2023-02-12T06:35:54.223Z,0
2023-02-12T06:42:16.995Z,0
2023-02-12T06:48:36.800Z,0
2023-02-12T06:54:59.788Z,0
2023-02-12T07:01:19.798Z,0
2023-02-12T07:07:42.794Z,0
2023-02-12T07:14:02.838Z,0
2023-02-12T07:20:25.735Z,0
2023-02-12T07:26:45.751Z,5.62
2023-02-12T07:33:08.844Z,5.62
2023-02-12T07:39:28.762Z,5.62
2023-02-12T07:45:51.860Z,5.62
2023-02-12T07:52:13.412Z,5.62
2023-02-12T07:58:34.740Z,5.62
2023-02-12T08:04:56.845Z,11.25
2023-02-12T08:11:17.808Z,11.25
2023-02-12T08:17:37.798Z,16.88
2023-02-12T08:24:00.759Z,16.88
2023-02-12T08:30:20.903Z,16.88
2023-02-12T08:36:44.132Z,22.5
2023-02-12T08:43:03.974Z,22.5
2023-02-12T08:49:26.843Z,22.5
2023-02-12T08:55:46.756Z,22.5
2023-02-12T09:02:09.839Z,22.5
2023-02-12T09:08:29.842Z,28.12
2023-02-12T09:14:52.723Z,28.12
2023-02-12T09:37:57.290Z,39.38
2023-02-12T09:44:16.757Z,39.38
2023-02-12T09:50:39.758Z,39.38
2023-02-12T09:56:59.827Z,45
2023-02-12T10:03:22.798Z,39.38
2023-02-12T10:09:42.856Z,39.38
2023-02-12T10:16:05.805Z,45
2023-02-12T10:22:25.800Z,39.38
2023-02-12T10:28:48.735Z,39.38
2023-02-12T10:35:08.776Z,45
2023-02-12T10:41:31.817Z,50.62
2023-02-12T10:47:51.908Z,56.25
2023-02-12T10:54:15.065Z,56.25
2023-02-12T11:00:34.742Z,50.62
2023-02-12T11:06:57.737Z,56.25
2023-02-12T11:13:17.780Z,56.25
2023-02-12T11:19:40.743Z,56.25
2023-02-12T11:26:00.823Z,61.88
2023-02-12T11:32:23.755Z,61.88
2023-02-12T11:38:43.767Z,61.88
2023-02-12T11:45:06.777Z,61.88
2023-02-12T11:51:26.797Z,56.25
2023-02-12T11:57:49.811Z,61.88
2023-02-12T12:04:09.766Z,61.88
2023-02-12T12:10:32.776Z,61.88
2023-02-12T12:16:52.762Z,67.5
2023-02-12T12:23:15.772Z,67.5
2023-02-12T12:29:35.778Z,61.88
2023-02-12T12:35:59.020Z,61.88
2023-02-12T12:42:18.737Z,61.88
2023-02-12T12:48:41.803Z,61.88
2023-02-12T12:55:01.725Z,61.88
2023-02-12T13:01:24.809Z,56.25
2023-02-12T13:07:44.764Z,56.25
2023-02-12T13:14:07.770Z,56.25
2023-02-12T13:20:27.776Z,50.62
2023-02-12T13:26:50.766Z,45
2023-02-12T13:33:10.745Z,50.62
2023-02-12T13:39:34.278Z,50.62
2023-02-12T13:45:53.953Z,45
2023-02-12T13:52:16.753Z,39.38
2023-02-12T13:58:36.770Z,39.38
2023-02-12T14:04:59.833Z,33.75
2023-02-12T14:11:19.786Z,28.12
2023-02-12T14:17:42.741Z,22.5
2023-02-12T14:24:02.798Z,22.5
2023-02-12T14:30:25.780Z,22.5
2023-02-12T14:36:45.728Z,16.88
2023-02-12T14:43:08.798Z,16.88
2023-02-12T14:49:28.729Z,16.88
2023-02-12T15:12:17.744Z,11.25
2023-02-12T15:18:40.735Z,11.25
2023-02-12T15:25:02.098Z,11.25
2023-02-12T15:31:25.161Z,5.62
2023-02-12T15:37:44.734Z,5.62
2023-02-12T15:44:07.744Z,5.62
2023-02-12T15:50:27.784Z,5.62
2023-02-12T15:56:50.781Z,5.62
2023-02-12T16:03:10.738Z,0
2023-02-12T16:09:33.843Z,0
2023-02-12T16:15:53.903Z,0
2023-02-12T16:22:16.853Z,0
2023-02-12T16:28:36.856Z,0
2023-02-12T16:34:59.735Z,0
2023-02-12T16:41:19.782Z,0
2023-02-12T16:47:42.808Z,0
2023-02-12T16:54:02.728Z,0
2023-02-12T17:00:25.800Z,0
2023-02-12T17:06:45.752Z,0
2023-02-12T17:13:08.771Z,0
2023-02-12T17:19:31.445Z,0
2023-02-12T17:25:55.078Z,0
2023-02-12T17:32:14.866Z,0
2023-02-12T17:38:37.780Z,0
2023-02-12T17:44:57.838Z,0
2023-02-12T17:51:20.763Z,0
2023-02-12T17:57:40.757Z,0
2023-02-12T18:04:03.930Z,0
2023-02-12T18:10:23.781Z,0
2023-02-12T18:16:46.816Z,0
2023-02-12T18:23:06.787Z,0
2023-02-12T18:29:29.731Z,0
2023-02-12T18:35:49.759Z,0
2023-02-12T18:42:12.782Z,0
2023-02-12T18:48:32.766Z,0
2023-02-12T18:54:55.848Z,0
2023-02-12T19:01:15.807Z,0
2023-02-12T19:07:39.023Z,0
2023-02-12T19:13:59.029Z,0
2023-02-12T19:20:21.783Z,0
2023-02-12T19:26:41.794Z,0
2023-02-12T19:33:04.751Z,0
2023-02-12T19:39:24.813Z,0
2023-02-12T19:45:47.769Z,0
2023-02-12T19:52:07.813Z,0
2023-02-12T19:58:30.827Z,0
2023-02-12T20:04:50.774Z,0
2023-02-12T20:11:13.774Z,0
2023-02-12T20:34:19.287Z,0
2023-02-12T20:40:38.763Z,0
2023-02-12T20:47:01.807Z,0
2023-02-12T20:53:21.753Z,0
2023-02-12T20:59:44.771Z,0
2023-02-12T21:06:04.775Z,0
2023-02-12T21:12:27.786Z,0
2023-02-12T21:18:47.830Z,0
2023-02-12T21:25:10.764Z,0
2023-02-12T21:31:30.819Z,0
2023-02-12T21:37:53.792Z,0
2023-02-12T21:44:13.758Z,0
2023-02-12T21:50:36.790Z,0
2023-02-12T21:56:56.783Z,0
2023-02-12T22:03:19.742Z,0
2023-02-12T22:09:39.826Z,0
2023-02-12T22:16:02.820Z,0
2023-02-12T22:22:22.915Z,0
2023-02-12T22:28:45.847Z,0
2023-02-12T22:35:05.760Z,0
2023-02-12T22:41:28.743Z,0
2023-02-12T22:47:48.763Z,0
2023-02-12T22:54:11.747Z,0
2023-02-12T23:00:31.741Z,0
2023-02-12T23:23:29.743Z,0
2023-02-12T23:29:49.755Z,0
2023-02-12T23:36:12.750Z,0
2023-02-12T23:42:32.807Z,0
2023-02-12T23:48:55.780Z,0
2023-02-12T23:55:15.799Z,0
